Time;durP1;ratioP1;P1;durP2;ratioP2;P2;SDS_P1;SDS_P2;PMS_P1;PMS_P2;Temp;Humidity;BMP_temperature;BMP_pressure;BME280_temperature;BME280_humidity;BME280_pressure;Samples;Min_cycle;Max_cycle;Signal;HPM_P1;HPM_P2
2021/08/20 00:01:08;;;;;;;40.95;22.10;;;;;;;;;;5046090;28;20477;-71
2021/08/20 00:03:34;;;;;;;44.08;24.20;;;;;;;;;;5052945;28;20044;-71
2021/08/20 00:06:01;;;;;;;53.10;25.65;;;;;;;;;;5061488;28;20150;-71
2021/08/20 00:08:27;;;;;;;49.80;25.13;;;;;;;;;;5060094;28;20479;-71
2021/08/20 00:10:54;;;;;;;43.15;24.48;;;;;;;;;;5050541;28;20037;-71
2021/08/20 00:13:20;;;;;;;56.22;25.92;;;;;;;;;;5059603;28;20123;-71
2021/08/20 00:15:46;;;;;;;40.67;24.80;;;;;;;;;;5056280;28;20079;-71
2021/08/20 00:18:13;;;;;;;48.47;25.13;;;;;;;;;;5046281;28;20114;-71
2021/08/20 00:20:40;;;;;;;39.92;22.85;;;;;;;;;;5060814;28;20477;-71
2021/08/20 00:23:06;;;;;;;44.05;24.95;;;;;;;;;;5039820;28;20076;-71
2021/08/20 00:25:33;;;;;;;48.85;24.70;;;;;;;;;;5056929;28;20052;-71
2021/08/20 00:27:59;;;;;;;46.17;24.20;;;;;;;;;;5053770;28;20037;-71
2021/08/20 00:30:25;;;;;;;42.17;23.75;;;;;;;;;;5053605;28;20045;-71
2021/08/20 00:32:52;;;;;;;40.63;23.48;;;;;;;;;;5056662;28;20124;-71
2021/08/20 00:35:18;;;;;;;43.83;23.13;;;;;;;;;;5060407;28;20741;-71
2021/08/20 00:37:44;;;;;;;41.97;23.58;;;;;;;;;;5059171;28;20810;-71
2021/08/20 00:40:11;;;;;;;38.53;22.27;;;;;;;;;;5063468;28;20448;-71
2021/08/20 00:42:37;;;;;;;35.60;22.27;;;;;;;;;;5060108;28;20064;-71
2021/08/20 00:45:04;;;;;;;39.28;21.55;;;;;;;;;;5054118;28;20036;-71
2021/08/20 00:47:30;;;;;;;38.22;21.45;;;;;;;;;;5059753;28;20044;-71
2021/08/20 00:49:57;;;;;;;37.15;21.90;;;;;;;;;;5039632;28;20366;-71
2021/08/20 00:52:24;;;;;;;35.58;21.58;;;;;;;;;;5053200;28;20040;-71
2021/08/20 00:54:50;;;;;;;32.03;20.20;;;;;;;;;;5044264;28;20044;-71
2021/08/20 00:57:17;;;;;;;33.22;19.50;;;;;;;;;;5063255;28;20051;-72
2021/08/20 00:59:45;;;;;;;28.25;20.20;;;;;;;;;;5062559;28;20052;-71
2021/08/20 01:02:12;;;;;;;33.97;20.30;;;;;;;;;;5060696;28;20055;-71
2021/08/20 01:04:38;;;;;;;33.80;20.50;;;;;;;;;;5063273;28;20132;-71
2021/08/20 01:07:06;;;;;;;38.90;21.77;;;;;;;;;;5054747;28;20061;-71
2021/08/20 01:09:32;;;;;;;40.55;22.00;;;;;;;;;;5057668;28;20197;-71
2021/08/20 01:11:58;;;;;;;52.80;23.90;;;;;;;;;;5059791;28;20135;-71
2021/08/20 01:14:27;;;;;;;52.22;25.52;;;;;;;;;;5059947;28;20411;-71
2021/08/20 01:16:53;;;;;;;52.72;25.02;;;;;;;;;;5062122;28;20053;-71
2021/08/20 01:19:20;;;;;;;47.65;25.13;;;;;;;;;;5061910;28;20468;-71
2021/08/20 01:21:46;;;;;;;45.53;24.45;;;;;;;;;;5059537;28;20033;-71
2021/08/20 01:24:12;;;;;;;47.83;26.13;;;;;;;;;;5058486;28;20056;-71
2021/08/20 01:26:39;;;;;;;44.67;24.33;;;;;;;;;;5060940;28;20044;-71
2021/08/20 01:29:05;;;;;;;40.47;24.95;;;;;;;;;;5063392;28;20090;-71
2021/08/20 01:31:31;;;;;;;42.00;24.95;;;;;;;;;;5063115;28;20052;-71
2021/08/20 01:33:58;;;;;;;45.13;26.55;;;;;;;;;;5048329;28;20424;-71
2021/08/20 01:36:24;;;;;;;48.95;27.55;;;;;;;;;;5047086;28;20049;-71
2021/08/20 01:38:52;;;;;;;56.10;26.95;;;;;;;;;;5056622;28;20037;-71
2021/08/20 01:41:20;;;;;;;46.35;28.13;;;;;;;;;;5055186;28;20041;-71
2021/08/20 01:43:46;;;;;;;43.60;26.27;;;;;;;;;;5061187;28;20053;-71
2021/08/20 01:46:13;;;;;;;41.97;24.58;;;;;;;;;;5062609;28;20400;-71
2021/08/20 01:48:47;;;;;;;44.55;26.27;;;;;;;;;;5052915;28;20097;-71
2021/08/20 01:51:14;;;;;;;43.70;27.05;;;;;;;;;;5061594;28;20136;-71
2021/08/20 01:53:42;;;;;;;43.83;27.15;;;;;;;;;;5060140;28;20480;-71
2021/08/20 01:56:13;;;;;;;45.47;26.65;;;;;;;;;;5057869;28;20037;-71
2021/08/20 01:58:39;;;;;;;47.15;25.98;;;;;;;;;;5074347;28;20178;-71
2021/08/20 02:01:05;;;;;;;48.83;26.92;;;;;;;;;;5056089;28;20073;-71
2021/08/20 02:03:32;;;;;;;42.60;24.85;;;;;;;;;;5060710;28;20040;-71
2021/08/20 02:05:58;;;;;;;40.85;24.42;;;;;;;;;;5051339;28;20046;-71
2021/08/20 02:08:25;;;;;;;41.38;25.48;;;;;;;;;;5064008;28;20527;-71
2021/08/20 02:10:55;;;;;;;38.40;25.17;;;;;;;;;;5060155;28;20556;-71
2021/08/20 02:13:21;;;;;;;42.65;26.02;;;;;;;;;;5039436;28;20075;-71
2021/08/20 02:15:48;;;;;;;62.65;26.58;;;;;;;;;;5059641;28;20048;-71
2021/08/20 02:18:14;;;;;;;37.83;23.15;;;;;;;;;;5059767;28;20044;-71
2021/08/20 02:20:41;;;;;;;40.22;26.00;;;;;;;;;;5060561;28;20064;-71
2021/08/20 02:23:07;;;;;;;52.78;27.88;;;;;;;;;;5058676;28;20161;-71
2021/08/20 02:25:34;;;;;;;57.03;28.42;;;;;;;;;;5049304;28;20119;-71
2021/08/20 02:28:02;;;;;;;63.13;30.48;;;;;;;;;;5060247;28;20430;-71
2021/08/20 02:30:28;;;;;;;50.53;29.05;;;;;;;;;;5061268;28;20041;-71
2021/08/20 02:32:55;;;;;;;69.57;31.83;;;;;;;;;;5058015;28;20496;-71
2021/08/20 02:35:22;;;;;;;56.35;28.45;;;;;;;;;;5056894;28;20131;-71
2021/08/20 02:37:48;;;;;;;48.30;28.58;;;;;;;;;;5052965;28;20057;-71
2021/08/20 02:40:14;;;;;;;47.83;27.60;;;;;;;;;;5063454;28;20485;-71
2021/08/20 02:42:41;;;;;;;49.58;27.85;;;;;;;;;;5060530;28;20102;-71
2021/08/20 02:45:08;;;;;;;41.22;27.20;;;;;;;;;;5058441;28;20086;-71
2021/08/20 02:47:34;;;;;;;43.28;27.58;;;;;;;;;;5062573;28;20102;-71
2021/08/20 02:50:00;;;;;;;43.75;27.02;;;;;;;;;;5060053;28;20119;-71
2021/08/20 02:52:26;;;;;;;40.78;25.52;;;;;;;;;;5068070;28;20094;-71
2021/08/20 02:54:53;;;;;;;43.70;27.27;;;;;;;;;;5055810;28;20040;-71
2021/08/20 02:57:22;;;;;;;49.97;27.60;;;;;;;;;;5050917;28;20481;-71
2021/08/20 02:59:49;;;;;;;42.83;24.88;;;;;;;;;;5056386;28;20040;-71
2021/08/20 03:02:16;;;;;;;41.63;25.90;;;;;;;;;;5063083;28;20043;-71
2021/08/20 03:04:42;;;;;;;51.05;27.13;;;;;;;;;;5063608;28;20036;-71
2021/08/20 03:07:09;;;;;;;45.03;26.63;;;;;;;;;;5054137;28;20049;-71
2021/08/20 03:09:35;;;;;;;43.90;26.52;;;;;;;;;;5053336;28;20522;-71
2021/08/20 03:12:02;;;;;;;52.65;28.70;;;;;;;;;;5061460;28;20037;-71
2021/08/20 03:14:28;;;;;;;54.47;27.85;;;;;;;;;;5055073;28;20045;-71
2021/08/20 03:16:55;;;;;;;57.33;30.13;;;;;;;;;;5046400;28;20091;-71
2021/08/20 03:19:21;;;;;;;68.32;32.08;;;;;;;;;;5063738;28;20048;-71
2021/08/20 03:21:48;;;;;;;55.35;30.88;;;;;;;;;;5064766;28;20144;-71
2021/08/20 03:24:14;;;;;;;47.72;30.27;;;;;;;;;;5056348;28;20049;-71
2021/08/20 03:26:41;;;;;;;60.95;31.42;;;;;;;;;;5059455;28;20041;-71
2021/08/20 03:29:07;;;;;;;54.92;29.48;;;;;;;;;;5056780;28;20086;-71
2021/08/20 03:31:33;;;;;;;56.22;31.65;;;;;;;;;;5054356;28;20043;-71
2021/08/20 03:34:00;;;;;;;57.97;31.48;;;;;;;;;;5057103;28;20036;-71
2021/08/20 03:36:27;;;;;;;70.20;35.55;;;;;;;;;;5055835;28;20044;-71
2021/08/20 03:38:53;;;;;;;65.68;34.22;;;;;;;;;;5061945;28;20073;-71
2021/08/20 03:41:20;;;;;;;68.53;34.38;;;;;;;;;;5061345;28;20551;-71
2021/08/20 03:43:48;;;;;;;69.00;32.58;;;;;;;;;;5047582;28;20116;-71
2021/08/20 03:46:14;;;;;;;71.95;35.10;;;;;;;;;;5061055;28;20127;-71
2021/08/20 03:48:42;;;;;;;59.55;31.70;;;;;;;;;;5057226;28;20136;-71
2021/08/20 03:51:09;;;;;;;69.05;32.70;;;;;;;;;;5055613;28;20044;-71
2021/08/20 03:53:35;;;;;;;53.45;31.90;;;;;;;;;;5043707;28;20044;-71
2021/08/20 03:56:01;;;;;;;68.20;33.78;;;;;;;;;;5041086;28;20102;-71
2021/08/20 03:58:28;;;;;;;69.80;35.83;;;;;;;;;;5059759;28;20044;-71
2021/08/20 04:00:54;;;;;;;66.32;36.08;;;;;;;;;;5063856;28;20385;-71
2021/08/20 04:03:21;;;;;;;61.20;33.92;;;;;;;;;;5060568;28;20100;-71
2021/08/20 04:05:47;;;;;;;67.68;34.78;;;;;;;;;;5062827;28;20114;-71
2021/08/20 04:08:14;;;;;;;67.43;34.22;;;;;;;;;;5053692;28;20067;-71
2021/08/20 04:10:42;;;;;;;61.75;32.22;;;;;;;;;;5052903;28;20131;-71
2021/08/20 04:13:09;;;;;;;75.38;37.75;;;;;;;;;;5059501;28;20055;-71
2021/08/20 04:15:36;;;;;;;61.60;34.45;;;;;;;;;;5055937;28;20036;-71
2021/08/20 04:18:03;;;;;;;58.88;32.88;;;;;;;;;;5059250;28;20057;-71
2021/08/20 04:20:29;;;;;;;56.60;31.15;;;;;;;;;;5055898;28;20072;-71
2021/08/20 04:22:55;;;;;;;53.50;30.30;;;;;;;;;;5055948;28;20052;-71
2021/08/20 04:25:22;;;;;;;54.22;31.73;;;;;;;;;;5059092;28;20118;-71
2021/08/20 04:27:49;;;;;;;50.20;29.05;;;;;;;;;;5060151;28;20052;-71
2021/08/20 04:30:18;;;;;;;61.55;32.65;;;;;;;;;;5055931;28;20167;-72
2021/08/20 04:32:44;;;;;;;55.30;30.48;;;;;;;;;;5057347;28;20041;-72
2021/08/20 04:35:11;;;;;;;64.63;32.97;;;;;;;;;;5045397;28;20975;-72
2021/08/20 04:37:37;;;;;;;59.33;33.42;;;;;;;;;;5056619;28;20465;-72
2021/08/20 04:40:04;;;;;;;54.08;30.17;;;;;;;;;;5056703;28;20050;-72
2021/08/20 04:42:31;;;;;;;49.65;31.02;;;;;;;;;;5057350;28;20121;-72
2021/08/20 04:44:57;;;;;;;64.10;30.95;;;;;;;;;;5057760;28;20048;-72
2021/08/20 04:47:24;;;;;;;66.88;33.47;;;;;;;;;;5059051;28;20473;-72
2021/08/20 04:49:50;;;;;;;62.28;33.60;;;;;;;;;;5060065;28;20127;-72
2021/08/20 04:52:17;;;;;;;68.40;35.65;;;;;;;;;;5055558;28;20405;-71
2021/08/20 04:54:43;;;;;;;72.57;36.33;;;;;;;;;;5056405;28;20044;-72
2021/08/20 04:57:09;;;;;;;74.50;35.60;;;;;;;;;;5062597;28;20048;-72
2021/08/20 04:59:37;;;;;;;70.43;33.72;;;;;;;;;;5061363;28;20045;-72
2021/08/20 05:02:04;;;;;;;69.03;35.28;;;;;;;;;;5065025;28;20187;-71
2021/08/20 05:04:33;;;;;;;70.35;34.58;;;;;;;;;;5057745;28;20037;-73
2021/08/20 05:07:00;;;;;;;78.22;34.47;;;;;;;;;;5043092;28;20041;-73
2021/08/20 05:09:27;;;;;;;78.50;36.92;;;;;;;;;;5060363;28;20075;-73
2021/08/20 05:11:54;;;;;;;79.10;37.63;;;;;;;;;;5049969;28;20088;-74
2021/08/20 05:14:20;;;;;;;82.85;35.63;;;;;;;;;;5054749;28;20045;-73
2021/08/20 05:16:48;;;;;;;75.68;35.05;;;;;;;;;;5058658;28;20053;-73
2021/08/20 05:19:15;;;;;;;74.32;32.80;;;;;;;;;;5051641;28;20048;-74
2021/08/20 05:21:41;;;;;;;65.75;32.75;;;;;;;;;;5056203;28;20128;-74
2021/08/20 05:24:07;;;;;;;66.40;31.75;;;;;;;;;;5056958;28;20068;-72
2021/08/20 05:26:34;;;;;;;62.38;31.55;;;;;;;;;;5050141;28;20136;-74
2021/08/20 05:29:00;;;;;;;60.05;31.80;;;;;;;;;;5051955;28;20554;-74
2021/08/20 05:31:26;;;;;;;52.88;28.33;;;;;;;;;;5048984;28;20445;-74
2021/08/20 05:33:53;;;;;;;53.70;30.25;;;;;;;;;;5059081;28;20044;-74
2021/08/20 05:36:19;;;;;;;48.60;27.08;;;;;;;;;;5052695;28;20067;-74
2021/08/20 05:38:45;;;;;;;47.58;27.77;;;;;;;;;;5058821;28;20475;-74
2021/08/20 05:41:12;;;;;;;50.50;28.77;;;;;;;;;;5055699;28;20048;-74
2021/08/20 05:43:39;;;;;;;59.15;29.10;;;;;;;;;;5061123;28;20036;-74
2021/08/20 05:46:05;;;;;;;54.90;28.50;;;;;;;;;;5058938;28;20056;-74
2021/08/20 05:48:31;;;;;;;45.25;26.35;;;;;;;;;;5040998;28;20452;-74
2021/08/20 05:50:58;;;;;;;48.00;25.88;;;;;;;;;;5055670;28;20041;-74
2021/08/20 05:53:24;;;;;;;52.60;27.05;;;;;;;;;;5062129;28;20044;-80
2021/08/20 05:55:53;;;;;;;55.80;27.92;;;;;;;;;;5060749;28;20056;-78
2021/08/20 05:58:19;;;;;;;55.78;28.83;;;;;;;;;;5044754;28;20109;-73
2021/08/20 06:00:48;;;;;;;71.78;34.33;;;;;;;;;;5055122;28;20159;-74
2021/08/20 06:03:21;;;;;;;79.82;36.22;;;;;;;;;;5063881;28;20037;-74
2021/08/20 06:05:47;;;;;;;68.05;35.33;;;;;;;;;;5057673;28;20065;-75
2021/08/20 06:08:14;;;;;;;72.97;38.05;;;;;;;;;;5063905;28;20493;-74
2021/08/20 06:10:44;;;;;;;84.38;41.20;;;;;;;;;;5058297;28;20382;-74
2021/08/20 06:13:12;;;;;;;70.63;38.33;;;;;;;;;;5057059;28;20037;-74
2021/08/20 06:15:39;;;;;;;85.13;42.80;;;;;;;;;;5058881;28;20036;-74
2021/08/20 06:18:05;;;;;;;94.35;42.85;;;;;;;;;;5052623;28;20037;-74
2021/08/20 06:20:32;;;;;;;83.30;41.50;;;;;;;;;;5052913;28;20503;-74
2021/08/20 06:22:59;;;;;;;77.82;40.05;;;;;;;;;;5048537;28;20130;-74
2021/08/20 06:25:25;;;;;;;82.88;40.70;;;;;;;;;;5060173;28;20054;-74
2021/08/20 06:27:51;;;;;;;83.38;41.08;;;;;;;;;;5053357;28;20047;-74
2021/08/20 06:30:18;;;;;;;79.70;38.60;;;;;;;;;;5056599;28;20045;-74
2021/08/20 06:32:44;;;;;;;70.55;37.60;;;;;;;;;;5058464;28;20033;-74
2021/08/20 06:35:10;;;;;;;65.57;36.83;;;;;;;;;;5056278;28;20036;-74
2021/08/20 06:37:37;;;;;;;68.35;37.00;;;;;;;;;;5058546;28;20056;-74
2021/08/20 06:40:05;;;;;;;79.28;39.65;;;;;;;;;;5056301;28;20402;-74
2021/08/20 06:42:31;;;;;;;70.28;37.40;;;;;;;;;;5059264;28;20044;-74
2021/08/20 06:44:57;;;;;;;67.30;37.28;;;;;;;;;;5052138;28;20505;-74
2021/08/20 06:47:24;;;;;;;74.70;39.67;;;;;;;;;;5070954;28;20476;-74
2021/08/20 06:49:51;;;;;;;77.28;40.30;;;;;;;;;;5069684;28;20118;-74
2021/08/20 06:52:17;;;;;;;71.38;37.40;;;;;;;;;;5070862;28;20045;-74
2021/08/20 06:54:43;;;;;;;70.53;39.10;;;;;;;;;;5051659;28;20484;-74
2021/08/20 06:57:12;;;;;;;74.38;38.72;;;;;;;;;;5069936;28;20569;-74
2021/08/20 06:59:38;;;;;;;73.38;38.25;;;;;;;;;;5069936;28;20762;-74
2021/08/20 07:02:04;;;;;;;85.88;43.13;;;;;;;;;;5049705;28;20033;-74
2021/08/20 07:04:33;;;;;;;83.35;39.53;;;;;;;;;;5063023;28;20119;-74
2021/08/20 07:06:59;;;;;;;80.50;40.67;;;;;;;;;;5070457;28;20144;-74
2021/08/20 07:09:25;;;;;;;81.45;42.20;;;;;;;;;;5069969;28;20059;-74
2021/08/20 07:11:52;;;;;;;79.18;38.40;;;;;;;;;;5069224;28;20128;-74
2021/08/20 07:14:19;;;;;;;97.28;44.47;;;;;;;;;;5069716;28;20052;-75
2021/08/20 07:16:46;;;;;;;94.03;44.20;;;;;;;;;;5070260;28;20056;-76
2021/08/20 07:19:12;;;;;;;88.55;43.10;;;;;;;;;;5069296;28;20048;-75
2021/08/20 07:21:38;;;;;;;89.45;45.42;;;;;;;;;;5069752;28;20052;-77
2021/08/20 07:24:05;;;;;;;70.93;40.17;;;;;;;;;;5067213;28;20041;-75
2021/08/20 07:26:31;;;;;;;80.53;42.92;;;;;;;;;;5068185;28;20441;-74
2021/08/20 07:28:57;;;;;;;75.97;41.50;;;;;;;;;;5049016;28;20048;-75
2021/08/20 07:31:25;;;;;;;81.95;42.97;;;;;;;;;;5047929;28;20155;-74
2021/08/20 07:33:52;;;;;;;81.82;43.92;;;;;;;;;;5053817;28;20062;-75
2021/08/20 07:36:18;;;;;;;80.43;41.75;;;;;;;;;;5070046;28;20049;-75
2021/08/20 07:38:45;;;;;;;81.32;43.70;;;;;;;;;;5067478;28;20045;-77
2021/08/20 07:41:11;;;;;;;78.05;43.20;;;;;;;;;;5067285;28;20088;-74
2021/08/20 07:43:37;;;;;;;75.78;41.45;;;;;;;;;;5049589;28;20040;-75
2021/08/20 07:46:03;;;;;;;73.82;42.28;;;;;;;;;;5064466;28;20068;-75
2021/08/20 07:48:30;;;;;;;71.53;41.17;;;;;;;;;;5065601;28;20041;-75
2021/08/20 07:50:56;;;;;;;71.15;41.15;;;;;;;;;;5052273;28;20061;-75
2021/08/20 07:53:22;;;;;;;69.40;41.35;;;;;;;;;;5050702;28;20143;-75
2021/08/20 07:55:49;;;;;;;67.80;40.95;;;;;;;;;;5065870;28;20052;-75
2021/08/20 07:58:15;;;;;;;73.97;41.55;;;;;;;;;;5058174;28;20119;-75
2021/08/20 08:00:43;;;;;;;82.95;42.58;;;;;;;;;;5070234;28;20056;-75
2021/08/20 08:03:09;;;;;;;73.03;40.65;;;;;;;;;;5068869;28;20119;-75
2021/08/20 08:05:35;;;;;;;75.82;41.75;;;;;;;;;;5065321;28;20160;-75
2021/08/20 08:08:02;;;;;;;79.00;43.95;;;;;;;;;;5066597;28;20047;-75
2021/08/20 08:10:28;;;;;;;69.55;41.97;;;;;;;;;;5064260;28;20153;-75
2021/08/20 08:12:55;;;;;;;70.70;40.75;;;;;;;;;;5062137;28;20052;-75
2021/08/20 08:15:22;;;;;;;74.10;42.83;;;;;;;;;;5065187;28;20040;-75
2021/08/20 08:17:49;;;;;;;73.15;40.90;;;;;;;;;;5064918;28;20063;-75
2021/08/20 08:20:16;;;;;;;60.42;36.97;;;;;;;;;;5050296;28;20043;-75
2021/08/20 08:22:44;;;;;;;62.05;38.28;;;;;;;;;;5068814;28;20044;-75
2021/08/20 08:25:11;;;;;;;65.63;40.33;;;;;;;;;;5071271;28;20076;-75
2021/08/20 08:27:48;;;;;;;65.63;39.45;;;;;;;;;;5038114;28;20485;-75
2021/08/20 08:30:15;;;;;;;64.28;40.47;;;;;;;;;;5059833;28;20051;-75
2021/08/20 08:32:41;;;;;;;57.78;38.47;;;;;;;;;;5051571;28;20033;-75
2021/08/20 08:35:08;;;;;;;58.17;39.88;;;;;;;;;;5063194;28;20052;-75
2021/08/20 08:37:34;;;;;;;67.85;39.65;;;;;;;;;;5067099;28;20055;-75
2021/08/20 08:40:00;;;;;;;61.10;37.53;;;;;;;;;;5069001;28;20048;-75
2021/08/20 08:42:27;;;;;;;58.30;37.30;;;;;;;;;;5065955;28;20044;-75
2021/08/20 08:44:53;;;;;;;51.28;35.30;;;;;;;;;;5061750;28;20127;-76
2021/08/20 08:47:19;;;;;;;56.10;37.38;;;;;;;;;;5061893;28;20079;-75
2021/08/20 08:49:46;;;;;;;56.28;37.25;;;;;;;;;;5054507;28;20068;-75
2021/08/20 08:52:13;;;;;;;54.78;35.88;;;;;;;;;;5069649;28;20417;-75
2021/08/20 08:54:40;;;;;;;51.17;35.05;;;;;;;;;;5063989;28;20048;-76
2021/08/20 08:57:06;;;;;;;46.47;32.50;;;;;;;;;;5065639;28;20126;-75
2021/08/20 08:59:33;;;;;;;53.03;35.38;;;;;;;;;;5050122;28;20107;-76
2021/08/20 09:01:59;;;;;;;49.55;33.85;;;;;;;;;;5058756;28;20044;-75
2021/08/20 09:04:25;;;;;;;53.63;35.53;;;;;;;;;;5060380;28;20049;-76
2021/08/20 09:06:53;;;;;;;55.28;35.25;;;;;;;;;;5047816;28;20123;-75
2021/08/20 09:09:21;;;;;;;53.83;34.80;;;;;;;;;;5060134;28;20060;-75
2021/08/20 09:11:56;;;;;;;50.13;32.42;;;;;;;;;;5065534;28;20136;-76
2021/08/20 09:14:30;;;;;;;52.47;34.03;;;;;;;;;;5061634;28;20142;-75
2021/08/20 09:16:57;;;;;;;49.92;33.05;;;;;;;;;;5062886;28;20479;-76
2021/08/20 09:19:25;;;;;;;46.47;31.48;;;;;;;;;;5062821;28;20135;-75
2021/08/20 09:21:54;;;;;;;44.45;31.70;;;;;;;;;;5064052;28;20036;-75
2021/08/20 09:24:30;;;;;;;39.42;26.88;;;;;;;;;;5061101;28;20096;-75
2021/08/20 09:27:18;;;;;;;42.38;26.95;;;;;;;;;;5066119;28;20040;-75
2021/08/20 09:29:56;;;;;;;36.40;25.13;;;;;;;;;;5079433;28;20044;-75
2021/08/20 09:32:24;;;;;;;33.30;25.02;;;;;;;;;;5071496;28;20049;-75
2021/08/20 09:34:52;;;;;;;34.08;22.15;;;;;;;;;;5061495;28;20064;-75
2021/08/20 09:37:19;;;;;;;29.55;21.33;;;;;;;;;;5071320;28;20052;-74
2021/08/20 09:39:46;;;;;;;31.65;20.65;;;;;;;;;;5063654;28;20041;-74
2021/08/20 09:42:14;;;;;;;28.73;21.30;;;;;;;;;;5057607;28;20100;-74
2021/08/20 09:44:41;;;;;;;30.85;22.45;;;;;;;;;;5062565;28;20045;-75
2021/08/20 09:47:07;;;;;;;31.58;21.63;;;;;;;;;;5064194;28;20115;-74
2021/08/20 09:49:54;;;;;;;34.67;21.27;;;;;;;;;;5070295;28;20044;-74
2021/08/20 09:52:29;;;;;;;25.63;17.75;;;;;;;;;;5067224;28;20052;-74
2021/08/20 09:54:55;;;;;;;20.25;15.50;;;;;;;;;;5070702;28;20045;-75
2021/08/20 09:57:24;;;;;;;21.08;15.52;;;;;;;;;;5050101;28;20044;-75
2021/08/20 09:59:53;;;;;;;24.13;15.05;;;;;;;;;;5064469;28;20037;-74
2021/08/20 10:02:20;;;;;;;21.50;13.40;;;;;;;;;;5060188;28;20467;-74
2021/08/20 10:04:47;;;;;;;21.40;12.38;;;;;;;;;;5062175;28;20122;-75
2021/08/20 10:07:17;;;;;;;18.42;12.75;;;;;;;;;;5058693;28;20052;-74
2021/08/20 10:09:45;;;;;;;22.58;13.32;;;;;;;;;;5037676;28;20095;-74
2021/08/20 10:12:12;;;;;;;21.08;13.90;;;;;;;;;;5049829;28;20123;-75
2021/08/20 10:14:39;;;;;;;20.52;13.25;;;;;;;;;;5036175;28;20807;-74
2021/08/20 10:17:06;;;;;;;23.45;13.90;;;;;;;;;;5053843;28;20500;-74
2021/08/20 10:19:32;;;;;;;20.65;13.75;;;;;;;;;;5059803;28;20052;-74
2021/08/20 10:21:59;;;;;;;22.15;14.80;;;;;;;;;;5058689;28;20037;-74
2021/08/20 10:24:26;;;;;;;20.65;14.15;;;;;;;;;;5061886;28;20044;-74
2021/08/20 10:26:54;;;;;;;19.17;11.98;;;;;;;;;;5057538;28;20166;-73
2021/08/20 10:29:25;;;;;;;18.63;12.48;;;;;;;;;;5060482;28;20048;-73
2021/08/20 10:31:51;;;;;;;23.40;12.65;;;;;;;;;;5060861;28;20052;-73
2021/08/20 10:34:30;;;;;;;17.38;11.20;;;;;;;;;;5062693;28;20036;-73
2021/08/20 10:37:04;;;;;;;15.93;11.32;;;;;;;;;;5056386;28;20449;-73
2021/08/20 10:39:30;;;;;;;17.50;10.00;;;;;;;;;;5057039;28;20138;-73
2021/08/20 10:42:05;;;;;;;14.70;8.90;;;;;;;;;;5056211;28;20095;-73
2021/08/20 10:44:40;;;;;;;15.25;9.02;;;;;;;;;;5056316;28;20448;-73
2021/08/20 10:47:06;;;;;;;17.38;11.65;;;;;;;;;;5062535;28;20052;-73
2021/08/20 10:49:36;;;;;;;17.45;11.52;;;;;;;;;;5059022;28;20119;-73
2021/08/20 10:52:03;;;;;;;16.83;11.05;;;;;;;;;;5056833;28;20138;-73
2021/08/20 10:54:33;;;;;;;17.20;10.80;;;;;;;;;;5051213;28;21058;-73
2021/08/20 10:57:01;;;;;;;22.80;11.57;;;;;;;;;;5059489;28;20048;-73
2021/08/20 10:59:37;;;;;;;19.42;11.25;;;;;;;;;;5061877;28;20408;-74
2021/08/20 11:02:18;;;;;;;16.58;9.02;;;;;;;;;;5061525;28;20049;-73
2021/08/20 11:04:58;;;;;;;16.58;9.00;;;;;;;;;;5044084;28;20503;-73
2021/08/20 11:07:33;;;;;;;14.63;9.25;;;;;;;;;;5056565;28;20050;-73
2021/08/20 11:10:01;;;;;;;17.13;9.57;;;;;;;;;;5061865;28;20081;-73
2021/08/20 11:12:41;;;;;;;17.88;10.30;;;;;;;;;;5065581;28;20891;-73
2021/08/20 11:15:18;;;;;;;18.63;10.57;;;;;;;;;;5062666;28;20033;-73
2021/08/20 11:17:48;;;;;;;17.50;10.07;;;;;;;;;;5037612;28;20051;-74
2021/08/20 11:20:19;;;;;;;12.80;8.60;;;;;;;;;;5058863;28;20036;-74
2021/08/20 11:22:45;;;;;;;15.85;8.45;;;;;;;;;;5062687;28;20400;-73
2021/08/20 11:25:15;;;;;;;13.40;7.35;;;;;;;;;;5060792;28;20582;-73
2021/08/20 11:27:53;;;;;;;11.85;6.85;;;;;;;;;;5060843;28;20037;-74
2021/08/20 11:30:20;;;;;;;13.95;6.75;;;;;;;;;;5054166;28;20195;-73
2021/08/20 11:32:46;;;;;;;12.38;6.30;;;;;;;;;;5055935;28;20053;-74
2021/08/20 11:35:25;;;;;;;12.80;6.32;;;;;;;;;;5052258;28;20068;-73
2021/08/20 11:37:53;;;;;;;15.90;7.85;;;;;;;;;;5034598;28;20390;-73
2021/08/20 11:40:19;;;;;;;14.88;7.85;;;;;;;;;;5029017;28;20091;-73
2021/08/20 11:43:07;;;;;;;13.77;7.90;;;;;;;;;;5036696;28;20547;-74
2021/08/20 11:45:34;;;;;;;23.83;8.30;;;;;;;;;;5039442;28;20127;-74
2021/08/20 11:48:00;;;;;;;25.67;9.20;;;;;;;;;;5039697;28;20049;-73
2021/08/20 11:50:28;;;;;;;18.70;8.90;;;;;;;;;;5043176;28;20107;-73
2021/08/20 11:52:54;;;;;;;17.33;9.27;;;;;;;;;;5045703;28;20044;-73
2021/08/20 11:55:20;;;;;;;16.40;8.52;;;;;;;;;;5039336;28;20049;-73
2021/08/20 11:57:47;;;;;;;17.25;9.15;;;;;;;;;;5040136;28;20040;-73
2021/08/20 12:00:14;;;;;;;18.85;7.68;;;;;;;;;;5036232;28;20033;-73
2021/08/20 12:02:41;;;;;;;13.60;7.53;;;;;;;;;;5040762;28;20037;-73
2021/08/20 12:05:19;;;;;;;18.63;9.85;;;;;;;;;;5046063;28;20512;-73
2021/08/20 12:07:46;;;;;;;22.30;9.52;;;;;;;;;;5030851;28;20050;-73
2021/08/20 12:10:13;;;;;;;17.58;9.73;;;;;;;;;;5032206;28;20105;-73
2021/08/20 12:12:40;;;;;;;19.27;9.60;;;;;;;;;;5042323;28;20061;-73
2021/08/20 12:15:07;;;;;;;19.52;9.15;;;;;;;;;;5030919;28;20068;-73
2021/08/20 12:17:34;;;;;;;15.32;9.32;;;;;;;;;;5038106;28;20045;-73
2021/08/20 12:20:02;;;;;;;14.95;8.10;;;;;;;;;;5045668;28;20165;-73
2021/08/20 12:22:35;;;;;;;15.20;8.80;;;;;;;;;;5033571;28;20052;-73
2021/08/20 12:25:01;;;;;;;15.05;7.35;;;;;;;;;;5034696;28;20045;-73
2021/08/20 12:27:37;;;;;;;13.88;7.00;;;;;;;;;;5043352;28;20047;-73
2021/08/20 12:30:05;;;;;;;12.60;7.03;;;;;;;;;;5041425;28;20122;-73
2021/08/20 12:32:33;;;;;;;14.57;6.72;;;;;;;;;;5037576;28;20140;-73
2021/08/20 12:35:00;;;;;;;20.33;7.47;;;;;;;;;;5039633;28;20103;-74
2021/08/20 12:37:27;;;;;;;16.70;7.30;;;;;;;;;;5054759;28;20514;-73
2021/08/20 12:40:04;;;;;;;13.52;6.43;;;;;;;;;;5061782;28;20044;-72
2021/08/20 12:42:31;;;;;;;19.50;7.55;;;;;;;;;;5058495;28;20050;-74
2021/08/20 12:45:10;;;;;;;14.10;7.68;;;;;;;;;;5056198;28;20099;-74
2021/08/20 12:47:36;;;;;;;13.70;7.20;;;;;;;;;;5058146;28;20135;-72
2021/08/20 12:50:05;;;;;;;12.13;7.10;;;;;;;;;;5053733;28;20057;-72
2021/08/20 12:52:31;;;;;;;13.00;6.90;;;;;;;;;;5056961;28;20044;-73
2021/08/20 12:54:57;;;;;;;14.07;8.00;;;;;;;;;;5060920;28;20471;-72
2021/08/20 12:57:24;;;;;;;14.15;6.68;;;;;;;;;;5058168;28;20049;-72
2021/08/20 13:00:01;;;;;;;11.85;6.75;;;;;;;;;;5063945;28;20047;-72
2021/08/20 13:02:27;;;;;;;12.23;6.40;;;;;;;;;;5062226;28;20051;-72
2021/08/20 13:04:53;;;;;;;16.90;7.05;;;;;;;;;;5059998;28;20056;-72
2021/08/20 13:07:20;;;;;;;15.07;8.35;;;;;;;;;;5059931;28;20416;-72
2021/08/20 13:09:46;;;;;;;13.77;7.40;;;;;;;;;;5060388;28;20105;-72
2021/08/20 13:12:12;;;;;;;10.50;7.55;;;;;;;;;;5055802;28;20037;-72
2021/08/20 13:14:38;;;;;;;13.27;7.13;;;;;;;;;;5048752;28;20047;-72
2021/08/20 13:17:05;;;;;;;13.70;6.70;;;;;;;;;;5058313;28;20518;-72
2021/08/20 13:19:31;;;;;;;13.55;6.68;;;;;;;;;;5064249;28;20048;-72
2021/08/20 13:21:58;;;;;;;15.45;8.70;;;;;;;;;;5056309;28;20460;-72
2021/08/20 13:24:24;;;;;;;21.52;8.60;;;;;;;;;;5057853;28;20147;-72
2021/08/20 13:26:50;;;;;;;13.18;8.40;;;;;;;;;;5058563;28;20127;-73
2021/08/20 13:29:17;;;;;;;14.70;7.40;;;;;;;;;;5054575;28;20464;-72
2021/08/20 13:31:43;;;;;;;11.88;6.80;;;;;;;;;;5047090;28;20520;-72
2021/08/20 13:34:09;;;;;;;13.98;7.40;;;;;;;;;;5055710;28;20073;-72
2021/08/20 13:36:35;;;;;;;13.10;7.65;;;;;;;;;;5060192;28;20060;-72
2021/08/20 13:39:02;;;;;;;12.85;6.78;;;;;;;;;;5060225;28;20046;-72
2021/08/20 13:41:32;;;;;;;12.10;6.57;;;;;;;;;;5057071;28;20040;-72
2021/08/20 13:43:59;;;;;;;10.95;6.80;;;;;;;;;;5059171;28;20059;-72
2021/08/20 13:46:26;;;;;;;21.23;10.45;;;;;;;;;;5057879;28;20040;-72
2021/08/20 13:48:52;;;;;;;11.20;6.68;;;;;;;;;;5060058;28;20477;-72
2021/08/20 13:51:19;;;;;;;14.43;7.13;;;;;;;;;;5057855;28;20072;-72
2021/08/20 13:53:45;;;;;;;11.95;7.28;;;;;;;;;;5057567;28;20454;-72
2021/08/20 13:56:12;;;;;;;13.02;6.53;;;;;;;;;;5062543;28;20033;-72
2021/08/20 13:58:40;;;;;;;13.32;6.35;;;;;;;;;;5059775;28;20047;-72
2021/08/20 14:01:07;;;;;;;9.93;6.68;;;;;;;;;;5052395;28;20076;-72
2021/08/20 14:03:33;;;;;;;14.98;7.57;;;;;;;;;;5061618;28;20093;-72
2021/08/20 14:06:00;;;;;;;12.30;7.35;;;;;;;;;;5058580;28;20056;-72
2021/08/20 14:08:26;;;;;;;14.45;7.25;;;;;;;;;;5054151;28;20037;-72
2021/08/20 14:10:52;;;;;;;9.85;5.45;;;;;;;;;;5053777;28;20045;-72
2021/08/20 14:13:19;;;;;;;11.27;7.88;;;;;;;;;;5063611;28;20078;-72
2021/08/20 14:15:45;;;;;;;11.10;7.40;;;;;;;;;;5058661;28;20131;-72
2021/08/20 14:18:12;;;;;;;13.02;7.50;;;;;;;;;;5051618;28;20040;-72
2021/08/20 14:20:38;;;;;;;13.93;7.20;;;;;;;;;;5060281;28;20510;-72
2021/08/20 14:23:05;;;;;;;11.77;6.85;;;;;;;;;;5056705;28;20044;-72